Latest Weather Observations for Temora

IDN60801

Issued at 2:05 pm EDT Tuesday 27 January 2015 (issued every 30 minutes, with the page automatically refreshed every 10 minutes)

About weather observations | Map of weather stations | Latest weather observations for NSW | Other Formats
Station Details ID: 073151 Name: TEMORA AIRPORT Lat: -34.43 Lon: 147.51 Height: 280.5 m
Data from the previous 72 hours. | See also: Recent months at Temora
Date/Time
EDT
Temp
°C
App
Temp
°C
Dew
Point
Rel
Hum
%
Delta-T
°C
Wind Press
QNH
hPa
Press
MSL
hPa
Rain
since 9 am
mm
Dir
 
Spd
km/h
Gust
km/h
Spd
kts
Gust
kts
27/02:00pm 26.7 24.0 14.5 47 7.4 ESE 22 32 12 17 1010.0 1008.4 0.0
27/01:30pm 27.3 26.2 16.3 51 6.9 E 17 24 9 13 1010.4 1008.8 0.0
27/01:00pm 26.2 24.8 15.6 52 6.5 ESE 17 24 9 13 1010.9 1009.3 0.0
27/12:30pm 24.4 21.8 13.9 52 6.2 ESE 20 30 11 16 1011.2 1009.5 0.0
27/12:00pm 23.9 21.5 13.7 53 6.0 E 19 28 10 15 1011.6 1010.0 0.0
27/11:30am 23.8 21.9 14.2 55 5.7 E 17 20 9 11 1011.9 1010.3 0.0
27/11:00am 24.0 21.1 14.1 54 5.9 E 22 30 12 16 1012.1 1010.5 0.0
27/10:30am 22.4 19.2 13.2 56 5.4 E 22 37 12 20 1012.3 1010.7 0.0
27/10:00am 22.2 18.7 13.3 57 5.2 E 24 35 13 19 1012.5 1010.9 0.0
27/09:30am 21.6 18.1 13.5 60 4.7 E 24 35 13 19 1012.6 1011.0 0.0
27/09:00am 20.4 16.4 12.9 62 4.3 E 26 37 14 20 1012.5 1010.9 0.0
27/08:30am 20.1 16.6 13.3 65 3.9 E 24 37 13 20 1012.4 1010.8 0.0
27/08:00am 18.7 16.0 12.9 69 3.3 E 19 30 10 16 1012.4 1010.8 0.0
27/07:30am 17.9 16.2 12.6 71 3.0 ESE 13 20 7 11 1012.2 1010.6 0.0
27/07:00am 17.1 15.8 12.4 74 2.6 ESE 11 17 6 9 1011.9 1010.3 0.0
27/06:30am 16.6 14.4 12.2 75 2.4 E 15 20 8 11 1011.6 1010.0 0.0
27/06:00am 17.0 15.2 12.1 73 2.7 E 13 19 7 10 1011.6 1010.0 0.0
27/05:30am 17.2 15.5 12.3 73 2.7 ESE 13 19 7 10 1011.4 1009.8 0.0
27/05:00am 17.8 15.7 12.5 71 3.0 E 15 26 8 14 1011.5 1009.9 0.0
27/04:30am 17.5 15.0 12.2 71 3.0 E 17 26 9 14 1011.4 1009.8 0.0
27/04:00am 17.5 15.0 12.2 71 3.0 E 17 28 9 15 1011.4 1009.8 0.0
27/03:30am 17.5 14.6 12.2 71 3.0 E 19 24 10 13 1011.7 1010.1 0.0
27/03:00am 17.7 14.8 12.2 70 3.1 E 19 30 10 16 1012.0 1010.4 0.0
27/02:30am 17.5 14.4 12.2 71 3.0 E 20 32 11 17 1012.2 1010.6 0.0
27/02:00am 17.5 13.6 12.0 70 3.1 E 24 39 13 21 1012.2 1010.6 0.0
27/01:30am 17.4 13.8 11.9 70 3.1 E 22 35 12 19 1012.3 1010.7 0.0
27/01:00am 17.7 14.7 11.9 69 3.2 ESE 19 28 10 15 1012.7 1011.1 0.0
27/12:30am 17.4 14.1 11.7 69 3.2 ESE 20 35 11 19 1012.8 1011.2 0.0
27/12:00am 17.3 14.1 11.8 70 3.0 ESE 20 33 11 18 1012.7 1011.1 0.0
 
Date/Time
EDT
Temp
°C
App
Temp
°C
Dew
Point
Rel
Hum
%
Delta-T
°C
Wind Press
QNH
hPa
Press
MSL
hPa
Rain
since 9 am
mm
Dir
 
Spd
km/h
Gust
km/h
Spd
kts
Gust
kts
26/11:30pm 17.5 14.3 11.8 69 3.2 ESE 20 30 11 16 1013.0 1011.4 0.0
26/11:00pm 17.9 14.7 11.9 68 3.3 E 20 30 11 16 1013.2 1011.6 0.0
26/10:30pm 18.3 13.9 11.8 66 3.6 E 26 35 14 19 1013.0 1011.4 0.0
26/09:30pm 20.4 16.7 12.6 61 4.5 ESE 24 32 13 17 1012.3 1010.7 0.0
26/09:00pm 21.7 18.5 13.1 58 5.0 ESE 22 32 12 17 1011.9 1010.3 0.0
26/08:30pm 22.1 18.9 5.1 33 8.5 SSE 11 15 6 8 1011.3 1009.6 0.0
26/08:00pm 23.7 20.4 4.6 29 9.6 SSW 11 15 6 8 1010.7 1009.1 0.0
26/07:30pm 25.3 21.4 3.3 24 10.9 SSW 13 17 7 9 1010.3 1008.7 0.0
26/07:00pm 26.3 22.5 4.1 24 11.3 SW 13 20 7 11 1009.8 1008.2 0.0
26/06:30pm 26.7 22.3 4.5 24 11.4 WSW 17 24 9 13 1009.5 1007.9 0.0
26/06:00pm 27.0 22.9 4.1 23 11.7 SW 15 26 8 14 1009.5 1007.9 0.0
26/05:30pm 27.3 23.2 6.1 26 11.2 SW 17 24 9 13 1009.7 1008.1 0.0
26/05:00pm 27.3 23.5 5.6 25 11.4 SSW 15 26 8 14 1009.9 1008.3 0.0
26/04:30pm 27.3 22.9 5.0 24 11.6 WSW 17 28 9 15 1010.2 1008.6 0.0
26/04:00pm 27.3 23.4 7.2 28 10.8 WSW 17 26 9 14 1010.4 1008.8 0.0
26/03:30pm 27.4 24.9 8.3 30 10.5 SW 11 20 6 11 1010.5 1008.9 0.0
26/03:00pm 26.9 23.5 5.8 26 11.1 WSW 13 20 7 11 1010.9 1009.3 0.0
26/02:30pm 26.5 23.0 7.0 29 10.4 SSW 15 22 8 12 1011.2 1009.5 0.0
26/02:00pm 26.2 23.2 7.7 31 10.0 SW 13 22 7 12 1011.4 1009.8 0.0
26/01:30pm 26.0 23.1 8.0 32 9.8 SW 13 20 7 11 1011.8 1010.2 0.0
26/01:00pm 24.9 22.0 8.0 34 9.1 SSW 13 24 7 13 1012.0 1010.4 0.0
26/12:30pm 24.7 22.5 6.0 30 9.7 S 7 15 4 8 1012.5 1010.9 0.0
26/12:00pm 24.1 20.6 5.5 30 9.5 SW 13 24 7 13 1012.6 1011.0 0.0
26/11:30am 24.0 21.0 7.6 35 8.7 SSW 13 22 7 12 1012.8 1011.2 0.0
26/11:00am 23.3 20.2 5.7 32 9.0 SE 11 17 6 9 1013.2 1011.6 0.0
26/10:30am 22.9 20.2 7.4 37 8.2 SSE 11 20 6 11 1013.3 1011.7 0.0
26/10:00am 21.5 19.3 9.4 46 6.6 S 11 19 6 10 1013.3 1011.7 0.0
26/09:30am 20.6 19.3 11.2 55 5.2 S 9 15 5 8 1013.2 1011.6 0.0
26/09:00am 18.6 16.5 9.7 56 4.8 S 11 13 6 7 1013.4 1011.8 0.0
26/08:30am 16.6 14.1 8.3 58 4.3 SSW 11 15 6 8 1013.4 1011.8 0.0
26/08:00am 14.7 12.0 7.3 61 3.7 SSW 11 17 6 9 1013.2 1011.6 0.0
26/07:30am 13.1 10.8 7.3 68 2.9 SSW 9 15 5 8 1013.0 1011.4 0.0
26/07:00am 12.3 9.5 6.8 69 2.7 SE 11 19 6 10 1012.7 1011.1 0.0
26/06:30am 8.9 6.2 5.5 79 1.6 SSW 9 11 5 6 1012.2 1010.6 0.0
26/06:00am 9.8 7.6 6.2 78 1.7 S 7 9 4 5 1011.8 1010.2 0.0
26/05:30am 8.8 6.3 6.4 85 1.1 SSW 9 13 5 7 1011.4 1009.8 0.0
26/05:00am 9.8 7.9 6.5 80 1.6 SSW 6 9 3 5 1011.1 1009.4 0.0
26/04:30am 11.3 10.0 5.8 69 2.6 SSE 2 7 1 4 1010.8 1009.2 0.0
26/04:00am 10.8 8.7 6.6 75 2.0 S 7 7 4 4 1010.8 1009.2 0.0
26/03:30am 10.7 8.6 6.8 77 1.9 SSW 7 9 4 5 1010.6 1009.0 0.0
26/03:00am 11.7 9.8 6.6 71 2.5 S 6 7 3 4 1010.6 1009.0 0.0
26/02:30am 12.3 9.9 5.2 62 3.3 SSW 7 9 4 5 1010.6 1009.0 0.0
26/02:00am 13.4 11.3 5.6 59 3.7 SSW 6 6 3 3 1010.6 1009.0 0.0
26/01:30am 14.4 12.8 6.3 58 4.0 S 4 6 2 3 1010.6 1009.0 0.0
26/01:00am 14.1 12.0 6.7 61 3.6 SSW 7 9 4 5 1010.5 1008.9 0.0
26/12:30am 16.0 13.4 4.4 46 5.5 SSW 7 9 4 5 1010.4 1008.8 0.0
26/12:00am 16.5 14.0 4.9 46 5.6 SSW 7 11 4 6 1010.5 1008.9 0.0
 
Date/Time
EDT
Temp
°C
App
Temp
°C
Dew
Point
Rel
Hum
%
Delta-T
°C
Wind Press
QNH
hPa
Press
MSL
hPa
Rain
since 9 am
mm
Dir
 
Spd
km/h
Gust
km/h
Spd
kts
Gust
kts
25/11:30pm 17.4 14.4 4.0 41 6.4 SW 9 13 5 7 1010.3 1008.7 0.0
25/11:00pm 17.4 14.3 5.7 46 5.8 WSW 11 17 6 9 1010.3 1008.7 0.0
25/10:30pm 17.8 15.2 6.0 46 5.9 WSW 9 11 5 6 1010.3 1008.7 0.0
25/10:00pm 18.8 16.1 5.6 42 6.6 WSW 9 11 5 6 1010.1 1008.5 0.0
25/09:30pm 19.2 16.0 5.3 40 6.9 WSW 11 13 6 7 1009.7 1008.1 0.0
25/09:00pm 20.1 16.4 4.2 35 7.8 WSW 13 15 7 8 1009.3 1007.7 0.0
25/08:30pm 21.9 18.0 3.6 30 8.9 WSW 13 19 7 10 1009.0 1007.4 0.0
25/08:00pm 24.1 19.4 3.4 26 10.2 WSW 17 22 9 12 1008.8 1007.2 0.0
25/07:30pm 25.5 20.2 2.9 23 11.2 WSW 20 30 11 16 1008.4 1006.8 0.0
25/07:00pm 26.2 20.2 3.4 23 11.4 WSW 24 32 13 17 1008.1 1006.4 0.0
25/06:30pm 26.6 20.2 5.0 25 11.2 WSW 28 41 15 22 1007.7 1006.0 0.0
25/06:00pm 27.2 22.6 8.1 30 10.5 WSW 22 39 12 21 1007.4 1005.7 0.0
25/05:30pm 27.5 23.1 8.9 31 10.3 WSW 22 35 12 19 1007.1 1005.5 0.0
25/05:00pm 28.0 24.4 12.0 37 9.4 WSW 22 35 12 19 1007.0 1005.4 0.0
25/04:30pm 27.9 25.0 11.0 35 9.7 WSW 17 32 9 17 1006.9 1005.3 0.0
25/04:00pm 27.7 24.1 11.7 37 9.3 WSW 22 37 12 20 1007.0 1005.4 0.0
25/03:30pm 28.1 23.7 11.6 36 9.6 WSW 26 39 14 21 1007.0 1005.4 0.0
25/03:00pm 27.1 22.0 10.7 35 9.4 W 28 39 15 21 1007.2 1005.6 0.0
25/02:30pm 27.2 22.8 11.7 38 9.0 WSW 26 39 14 21 1007.2 1005.6 0.0
25/02:00pm 26.9 22.8 11.4 38 9.0 WSW 24 37 13 20 1007.5 1005.8 0.0
25/01:30pm 26.2 21.6 11.2 39 8.6 WSW 26 39 14 21 1007.5 1005.8 0.0
25/01:00pm 25.8 22.4 11.2 40 8.4 WSW 20 28 11 15 1007.5 1005.8 0.0
25/12:30pm 25.6 22.1 12.1 43 7.8 WSW 22 33 12 18 1007.6 1005.9 0.0
25/12:00pm 25.0 21.3 11.6 43 7.7 SW 22 32 12 17 1007.7 1006.0 0.0
25/11:30am 24.7 21.1 10.6 41 7.9 SW 20 28 11 15 1007.6 1005.9 0.0
25/11:00am 23.5 19.2 10.9 45 7.1 SW 24 33 13 18 1007.5 1005.8 0.0
25/10:30am 23.1 18.6 10.2 44 7.2 SW 24 35 13 19 1007.5 1005.8 0.0
25/10:00am 22.5 17.7 9.0 42 7.3 SSW 24 41 13 22 1007.5 1005.8 0.0
25/09:30am 21.6 16.1 9.2 45 6.7 SW 28 41 15 22 1007.6 1005.9 0.0
25/09:00am 21.2 15.8 9.4 47 6.4 SW 28 44 15 24 1007.2 1005.6 2.8
25/08:30am 21.0 17.1 9.6 48 6.2 SSW 20 30 11 16 1006.9 1005.3 2.8
25/08:00am 20.2 16.4 9.7 51 5.7 SW 20 30 11 16 1006.6 1005.0 2.8
25/07:30am 19.2 15.6 10.5 57 4.8 SW 20 32 11 17 1006.6 1005.0 2.8
25/07:00am 19.0 16.9 12.3 65 3.8 SW 15 22 8 12 1005.8 1004.2 2.8
25/06:30am 20.6 17.7 16.2 76 2.7 W 26 35 14 19 1005.2 1003.6 2.8
25/06:00am 19.9 21.0 18.0 89 1.2 NW 9 11 5 6 1004.7 1003.0 2.8
25/05:30am 20.5 21.4 18.4 88 1.3 NW 11 15 6 8 1004.4 1002.7 2.8
25/05:00am 20.8 21.4 18.6 87 1.4 NNW 13 17 7 9 1004.3 1002.6 2.8
25/04:30am 21.0 22.5 18.9 88 1.3 WNW 9 17 5 9 1004.5 1002.8 2.8
25/04:00am 20.5 22.0 18.8 90 1.1 NNW 9 13 5 7 1004.6 1002.9 2.8
25/03:30am 21.0 22.3 18.4 85 1.6 NNE 9 11 5 6 1004.6 1002.9 2.8
25/03:00am 21.1 21.3 18.5 85 1.6 NNE 15 17 8 9 1004.4 1002.7 2.8
25/02:30am 21.4 22.7 18.4 83 1.9 NNE 9 13 5 7 1004.9 1003.2 2.8
25/02:00am 21.5 22.7 18.3 82 2.0 NE 9 13 5 7 1005.0 1003.3 2.8
25/01:30am 21.3 22.3 18.7 85 1.7 NE 11 13 6 7 1005.1 1003.5 2.8
25/01:00am 21.7 22.6 19.3 86 1.5 NE 13 17 7 9 1005.5 1003.9 2.8
25/12:30am 21.8 22.3 19.2 85 1.7 NNE 15 19 8 10 1005.7 1004.1 2.8
25/12:00am 21.7 23.1 19.6 88 1.4 N 11 17 6 9 1005.7 1004.1 2.8
 
Date/Time
EDT
Temp
°C
App
Temp
°C
Dew
Point
Rel
Hum
%
Delta-T
°C
Wind Press
QNH
hPa
Press
MSL
hPa
Rain
since 9 am
mm
Dir
 
Spd
km/h
Gust
km/h
Spd
kts
Gust
kts
24/11:30pm 22.4 23.2 19.9 86 1.6 NNE 15 19 8 10 1005.9 1004.3 2.8
24/11:00pm 22.7 23.5 19.9 84 1.8 NNE 15 20 8 11 1006.2 1004.6 2.8
24/10:30pm 23.5 23.4 19.6 79 2.5 NNE 19 20 10 11 1006.2 1004.6 2.8
24/10:00pm 23.8 25.3 19.7 78 2.7 NE 11 15 6 8 1006.0 1004.4 2.8
24/09:30pm 24.1 24.4 18.7 72 3.5 NE 15 20 8 11 1005.7 1004.1 2.8
24/09:00pm 24.9 24.9 18.1 66 4.3 NE 15 20 8 11 1005.2 1003.6 2.8
24/08:30pm 25.7 26.8 18.9 66 4.4 ENE 11 15 6 8 1004.7 1003.0 2.8
24/08:00pm 26.6 27.0 18.2 60 5.4 ENE 13 17 7 9 1004.5 1002.8 2.8
24/07:30pm 27.7 28.9 19.0 59 5.7 NNE 11 13 6 7 1004.3 1002.6 2.8
24/07:00pm 28.1 28.8 18.8 57 6.1 NNE 13 15 7 8 1004.2 1002.5 2.8
24/06:30pm 28.2 27.4 18.0 54 6.6 N 19 24 10 13 1004.2 1002.5 2.8
24/06:00pm 28.6 28.4 17.5 51 7.1 N 15 33 8 18 1004.1 1002.4 2.8
24/05:30pm 30.6 31.8 18.3 47 8.0 ENE 9 15 5 8 1003.9 1002.2 2.8
24/05:00pm 29.7 30.7 19.4 54 6.8 S 13 17 7 9 1003.9 1002.2 2.8
24/04:30pm 30.3 30.1 19.3 51 7.2 WSW 19 26 10 14 1004.7 1003.0 2.8
24/04:00pm 30.2 29.0 18.3 49 7.7 SW 22 30 12 16 1005.3 1003.7 2.8
24/03:30pm 30.1 29.7 20.1 55 6.7 SW 22 33 12 18 1005.1 1003.5 2.8
24/03:00pm 29.4 30.0 21.1 61 5.6 SW 19 30 10 16 1005.7 1004.1 2.8
24/02:30pm 29.3 30.4 19.6 56 6.4 SW 13 22 7 12 1005.5 1003.9 2.8

Other Formats:

Comma delimited format used in spreadsheet applications
http://www.bom.gov.au/fwo/IDN60801/IDN60801.95722.axf

JavaScript Object Notation format (JSON) in row-major order
http://www.bom.gov.au/fwo/IDN60801/IDN60801.95722.json